createdAt,value
2019-04-25T00:00:42.903Z,99.90
2019-04-25T00:03:12.219Z,99.90
2019-04-25T00:05:39.637Z,99.90
2019-04-25T00:08:07.583Z,99.90
2019-04-25T00:10:35.032Z,99.90
2019-04-25T00:13:03.578Z,99.90
2019-04-25T00:15:31.950Z,99.90
2019-04-25T00:17:59.330Z,99.90
2019-04-25T00:20:27.755Z,99.90
2019-04-25T00:23:23.519Z,99.90
2019-04-25T00:25:59.240Z,99.90
2019-04-25T00:28:26.538Z,99.90
2019-04-25T00:30:53.856Z,99.90
2019-04-25T00:33:21.564Z,99.90
2019-04-25T00:35:49.614Z,99.90
2019-04-25T00:38:17.332Z,99.90
2019-04-25T00:40:44.763Z,99.90
2019-04-25T00:43:12.083Z,99.90
2019-04-25T00:45:39.456Z,99.90
2019-04-25T00:48:06.667Z,99.90
2019-04-25T00:50:33.987Z,99.90
2019-04-25T00:53:01.325Z,99.90
2019-04-25T00:55:29.048Z,99.90
2019-04-25T00:58:03.458Z,99.90
2019-04-25T01:00:56.116Z,99.90
2019-04-25T01:03:26.180Z,99.90
2019-04-25T01:05:54.630Z,99.90
2019-04-25T01:08:22.118Z,99.90
2019-04-25T01:10:50.407Z,99.90
2019-04-25T01:13:19.066Z,99.90
2019-04-25T01:15:46.435Z,99.90
2019-04-25T01:18:13.847Z,99.90
2019-04-25T01:20:41.207Z,99.90
2019-04-25T01:23:08.521Z,99.90
2019-04-25T01:25:41.083Z,99.90
2019-04-25T01:28:05.068Z,99.90
2019-04-25T01:30:33.976Z,99.90
2019-04-25T01:33:01.301Z,99.90
2019-04-25T01:35:54.296Z,99.90
2019-04-25T01:38:40.127Z,99.90
2019-04-25T01:41:29.621Z,99.90
2019-04-25T01:44:01.535Z,99.90
2019-04-25T01:46:29.167Z,99.90
2019-04-25T01:48:56.580Z,99.90
2019-04-25T01:51:24.083Z,99.90
2019-04-25T01:53:51.444Z,99.90
2019-04-25T01:56:18.787Z,99.90
2019-04-25T01:58:46.098Z,99.90
2019-04-25T02:01:14.312Z,99.90
2019-04-25T02:03:41.848Z,99.90
2019-04-25T02:06:09.085Z,99.90
2019-04-25T02:08:36.390Z,99.90
2019-04-25T02:11:14.538Z,99.90
2019-04-25T02:13:43.685Z,99.90
2019-04-25T02:16:11.752Z,99.90
2019-04-25T02:18:39.097Z,99.90
2019-04-25T02:21:06.292Z,99.90
2019-04-25T02:23:34.111Z,99.90
2019-04-25T02:26:13.877Z,99.90
2019-04-25T02:28:33.689Z,99.90
2019-04-25T02:31:03.792Z,99.90
2019-04-25T02:33:30.445Z,99.90
2019-04-25T02:35:59.476Z,99.90
2019-04-25T02:38:26.994Z,99.90
2019-04-25T02:40:58.654Z,99.90
2019-04-25T02:43:24.001Z,99.90
2019-04-25T02:46:09.125Z,99.90
2019-04-25T02:49:09.073Z,99.90
2019-04-25T02:51:38.511Z,99.90
2019-04-25T02:54:07.939Z,99.70
2019-04-25T02:56:38.697Z,99.90
2019-04-25T02:59:06.982Z,99.50
2019-04-25T03:01:34.232Z,99.50
2019-04-25T03:04:02.739Z,99.50
2019-04-25T03:06:30.893Z,99.50
2019-04-25T03:09:00.036Z,99.30
2019-04-25T03:11:27.491Z,99.30
2019-04-25T03:13:54.815Z,99.20
2019-04-25T03:16:22.130Z,99.10
2019-04-25T03:18:58.876Z,99.00
2019-04-25T03:21:29.772Z,98.90
2019-04-25T03:23:57.106Z,98.70
2019-04-25T03:26:24.342Z,98.70
2019-04-25T03:28:51.695Z,98.60
2019-04-25T03:31:23.121Z,98.60
2019-04-25T03:33:48.324Z,98.60
2019-04-25T03:36:16.962Z,98.60
2019-04-25T03:38:44.652Z,98.60
2019-04-25T03:41:13.197Z,98.50
2019-04-25T03:43:41.199Z,98.50
2019-04-25T03:46:08.525Z,98.50
2019-04-25T03:48:37.083Z,98.50
2019-04-25T03:51:05.452Z,98.40
2019-04-25T03:53:33.844Z,98.40
2019-04-25T03:56:02.811Z,98.30
2019-04-25T03:58:30.430Z,98.30
2019-04-25T04:00:57.715Z,98.30
2019-04-25T04:03:24.965Z,98.10
2019-04-25T04:05:52.298Z,98.20
2019-04-25T04:08:19.557Z,98.20
2019-04-25T04:10:46.902Z,98.10
2019-04-25T04:13:15.482Z,98.10
2019-04-25T04:15:43.419Z,98.00
2019-04-25T04:18:17.250Z,97.80
2019-04-25T04:20:54.311Z,97.70
2019-04-25T04:23:26.587Z,97.70
2019-04-25T04:25:54.641Z,97.80
2019-04-25T04:28:23.578Z,97.80
2019-04-25T04:30:51.104Z,97.60
2019-04-25T04:33:29.460Z,97.60
2019-04-25T04:35:47.782Z,97.50
2019-04-25T04:38:15.535Z,97.50
2019-04-25T04:40:44.207Z,97.70
2019-04-25T04:43:11.748Z,97.80
2019-04-25T04:45:39.177Z,97.80
2019-04-25T04:48:06.426Z,97.80
2019-04-25T04:50:33.791Z,97.80
2019-04-25T04:53:01.065Z,97.70
2019-04-25T04:55:28.388Z,97.70
2019-04-25T04:57:56.037Z,97.70
2019-04-25T05:00:24.668Z,97.50
2019-04-25T05:03:01.867Z,97.50
2019-04-25T05:05:55.112Z,97.30
2019-04-25T05:08:25.032Z,97.20
2019-04-25T05:10:54.046Z,96.80
2019-04-25T05:13:22.071Z,96.80
2019-04-25T05:15:49.310Z,96.40
2019-04-25T05:18:32.962Z,96.40
2019-04-25T05:20:45.916Z,96.10
2019-04-25T05:23:14.818Z,95.90
2019-04-25T05:25:44.091Z,95.80
2019-04-25T05:28:11.536Z,95.60
2019-04-25T05:30:47.544Z,95.30
2019-04-25T05:33:18.642Z,95.20
2019-04-25T05:35:44.205Z,95.10
2019-04-25T05:38:13.227Z,95.00
2019-04-25T05:40:51.592Z,95.00
2019-04-25T05:43:18.844Z,95.30
2019-04-25T05:45:46.169Z,94.80
2019-04-25T05:48:15.161Z,94.70
2019-04-25T05:50:43.699Z,94.50
2019-04-25T05:53:11.001Z,94.10
2019-04-25T05:55:38.263Z,93.70
2019-04-25T05:58:05.472Z,93.20
2019-04-25T06:00:34.100Z,93.10
2019-04-25T06:03:01.599Z,92.90
2019-04-25T06:05:28.902Z,92.80
2019-04-25T06:07:56.295Z,92.50
2019-04-25T06:10:51.787Z,92.20
2019-04-25T06:13:28.477Z,92.00
2019-04-25T06:16:01.489Z,91.70
2019-04-25T06:18:35.134Z,91.00
2019-04-25T06:21:03.076Z,90.60
2019-04-25T06:24:07.953Z,90.00
2019-04-25T06:26:43.338Z,89.50
2019-04-25T06:29:10.741Z,89.20
2019-04-25T06:31:38.173Z,88.20
2019-04-25T06:34:05.402Z,87.70
2019-04-25T06:41:40.428Z,87.10
2019-04-25T06:44:09.528Z,86.70
2019-04-25T06:47:03.388Z,86.70
2019-04-25T06:49:36.404Z,86.30
2019-04-25T06:52:01.697Z,85.00
2019-04-25T06:54:29.570Z,84.50
2019-04-25T06:56:56.933Z,84.30
2019-04-25T06:59:26.011Z,84.00
2019-04-25T07:01:54.143Z,83.60
2019-04-25T07:04:25.113Z,83.60
2019-04-25T07:06:51.489Z,82.70
2019-04-25T07:09:18.817Z,81.60
2019-04-25T07:11:48.209Z,81.40
2019-04-25T07:14:15.383Z,80.50
2019-04-25T07:16:43.326Z,80.00
2019-04-25T07:19:10.902Z,80.10
2019-04-25T07:21:38.204Z,79.50
2019-04-25T07:24:05.626Z,79.20
2019-04-25T07:27:01.276Z,79.40
2019-04-25T07:29:44.519Z,79.00
2019-04-25T07:32:40.206Z,78.80
2019-04-25T07:35:07.625Z,77.40
2019-04-25T07:37:37.232Z,77.30
2019-04-25T07:40:05.567Z,76.50
2019-04-25T07:42:34.266Z,75.10
2019-04-25T07:45:02.213Z,73.70
2019-04-25T07:47:31.393Z,73.50
2019-04-25T07:49:58.717Z,73.00
2019-04-25T07:52:26.994Z,73.70
2019-04-25T07:54:54.454Z,72.50
2019-04-25T07:57:23.439Z,71.30
2019-04-25T07:59:52.151Z,70.80
2019-04-25T08:02:20.081Z,71.20
2019-04-25T08:04:47.334Z,71.50
2019-04-25T08:07:14.558Z,70.80
2019-04-25T08:09:41.796Z,69.90
2019-04-25T08:12:09.087Z,71.10
2019-04-25T08:14:45.994Z,71.60
2019-04-25T08:17:14.505Z,72.00
2019-04-25T08:19:41.855Z,72.30
2019-04-25T08:22:09.186Z,72.40
2019-04-25T08:29:45.151Z,71.50
2019-04-25T08:32:14.139Z,71.60
2019-04-25T08:34:41.573Z,71.40
2019-04-25T08:37:17.971Z,71.70
2019-04-25T08:39:38.750Z,71.70
2019-04-25T08:42:07.041Z,70.90
2019-04-25T08:44:35.497Z,70.30
2019-04-25T08:47:04.483Z,70.00
2019-04-25T08:49:49.362Z,69.60
2019-04-25T08:52:15.953Z,69.30
2019-04-25T08:55:06.199Z,68.70
2019-04-25T08:57:57.777Z,69.40
2019-04-25T09:01:00.862Z,70.00
2019-04-25T09:03:27.876Z,70.10
2019-04-25T09:05:55.230Z,70.20
2019-04-25T09:08:23.999Z,70.60
2019-04-25T09:10:51.423Z,70.40
2019-04-25T09:13:18.673Z,70.70
2019-04-25T09:15:46.000Z,71.30
2019-04-25T09:18:14.138Z,71.50
2019-04-25T09:20:42.894Z,71.70
2019-04-25T09:23:10.549Z,71.70
2019-04-25T09:25:38.582Z,71.90
2019-04-25T09:28:05.907Z,71.00
2019-04-25T09:30:34.929Z,70.00
2019-04-25T09:33:03.096Z,70.00
2019-04-25T09:35:33.302Z,69.80
2019-04-25T09:38:00.774Z,69.80
2019-04-25T09:40:28.031Z,69.30
2019-04-25T09:42:55.477Z,68.70
2019-04-25T09:45:37.906Z,67.70
2019-04-25T09:48:27.809Z,66.60
2019-04-25T09:51:03.566Z,65.10
2019-04-25T09:53:31.421Z,63.50
2019-04-25T09:56:16.469Z,62.20
2019-04-25T09:58:49.580Z,60.90
2019-04-25T10:01:17.737Z,59.70
2019-04-25T10:03:45.740Z,58.60
2019-04-25T10:06:16.209Z,58.60
2019-04-25T10:08:45.116Z,58.80
2019-04-25T10:11:12.849Z,59.20
2019-04-25T10:13:40.185Z,58.80
2019-04-25T10:16:10.481Z,58.60
2019-04-25T10:18:38.964Z,58.50
2019-04-25T10:21:10.591Z,58.50
2019-04-25T10:23:38.494Z,58.10
2019-04-25T10:26:08.405Z,56.80
2019-04-25T10:28:35.753Z,56.30
2019-04-25T10:31:03.609Z,56.60
2019-04-25T10:33:31.109Z,56.50
2019-04-25T10:35:59.491Z,55.40
2019-04-25T10:38:27.822Z,54.90
2019-04-25T10:40:55.349Z,54.90
2019-04-25T10:43:23.933Z,55.20
2019-04-25T10:45:51.627Z,54.80
2019-04-25T10:48:18.957Z,54.10
2019-04-25T10:50:47.437Z,53.90
2019-04-25T10:53:15.469Z,53.20
2019-04-25T10:55:43.701Z,53.80
2019-04-25T10:58:10.953Z,53.00
2019-04-25T11:00:40.778Z,53.30
2019-04-25T11:03:20.760Z,54.00
2019-04-25T11:05:48.165Z,54.10
2019-04-25T11:08:16.901Z,53.60
2019-04-25T11:10:46.993Z,53.70
2019-04-25T11:13:14.371Z,53.40
2019-04-25T11:15:41.971Z,52.60
2019-04-25T11:18:10.051Z,53.10
2019-04-25T11:20:37.461Z,52.60
2019-04-25T11:23:04.709Z,52.10
2019-04-25T11:25:32.026Z,52.20
2019-04-25T11:28:00.073Z,51.80
2019-04-25T11:30:28.548Z,51.70
2019-04-25T11:32:58.137Z,51.00
2019-04-25T11:35:25.483Z,50.50
2019-04-25T11:37:54.892Z,50.30
2019-04-25T11:40:29.319Z,50.20
2019-04-25T11:42:56.585Z,50.30
2019-04-25T11:45:23.916Z,49.90
2019-04-25T11:47:51.136Z,48.50
2019-04-25T11:50:18.578Z,48.30
2019-04-25T11:52:46.781Z,47.70
2019-04-25T11:55:14.384Z,47.60
2019-04-25T11:57:44.145Z,47.20
2019-04-25T12:00:21.461Z,46.00
2019-04-25T12:02:40.757Z,46.10
2019-04-25T12:05:08.286Z,46.00
2019-04-25T12:07:35.513Z,46.10
2019-04-25T12:10:03.848Z,45.00
2019-04-25T12:12:31.125Z,44.10
2019-04-25T12:14:58.340Z,44.30
2019-04-25T12:17:25.631Z,44.60
2019-04-25T12:19:54.652Z,44.10
2019-04-25T12:22:21.943Z,45.00
2019-04-25T12:24:50.113Z,45.90
2019-04-25T12:27:17.541Z,45.70
2019-04-25T12:29:45.878Z,46.30
2019-04-25T12:32:14.189Z,46.40
2019-04-25T12:34:41.478Z,46.70
2019-04-25T12:37:08.713Z,46.40
2019-04-25T12:39:35.934Z,46.50
2019-04-25T12:42:04.306Z,46.50
2019-04-25T12:45:04.093Z,46.70
2019-04-25T12:47:34.234Z,45.50
2019-04-25T12:50:01.608Z,44.30
2019-04-25T12:52:28.936Z,44.10
2019-04-25T12:54:58.067Z,43.90
2019-04-25T12:57:26.620Z,43.60
2019-04-25T12:59:55.356Z,43.60
2019-04-25T13:02:23.521Z,43.80
2019-04-25T13:04:50.986Z,42.90
2019-04-25T13:07:18.205Z,43.00
2019-04-25T13:09:45.658Z,43.40
2019-04-25T13:12:14.669Z,43.80
2019-04-25T13:14:42.277Z,44.30
2019-04-25T13:17:09.717Z,44.50
2019-04-25T13:19:37.053Z,42.40
2019-04-25T13:22:05.977Z,42.30
2019-04-25T13:24:33.427Z,41.90
2019-04-25T13:27:06.583Z,41.10
2019-04-25T13:29:57.104Z,41.60
2019-04-25T13:32:49.905Z,42.30
2019-04-25T13:35:23.412Z,42.40
2019-04-25T13:37:50.807Z,41.70
2019-04-25T13:40:18.527Z,41.30
2019-04-25T13:42:45.961Z,40.80
2019-04-25T13:45:14.329Z,41.00
2019-04-25T13:47:41.664Z,40.90
2019-04-25T13:50:09.217Z,40.30
2019-04-25T13:52:37.192Z,40.30
2019-04-25T13:55:05.194Z,40.30
2019-04-25T13:57:32.426Z,40.20
2019-04-25T13:59:59.865Z,40.50
2019-04-25T14:02:27.185Z,40.60
2019-04-25T14:04:54.529Z,40.90
2019-04-25T14:07:22.902Z,41.30
2019-04-25T14:09:50.441Z,41.20
2019-04-25T14:12:17.800Z,41.30
2019-04-25T14:14:45.004Z,41.30
2019-04-25T14:17:23.093Z,41.40
2019-04-25T14:20:10.565Z,41.70
2019-04-25T14:22:37.915Z,41.70
2019-04-25T14:25:05.510Z,41.90
2019-04-25T14:27:34.058Z,42.00
2019-04-25T14:30:03.755Z,42.70
2019-04-25T14:32:30.825Z,43.20
2019-04-25T14:34:58.149Z,43.50
2019-04-25T14:37:29.314Z,43.60
2019-04-25T14:39:55.356Z,43.60
2019-04-25T14:42:23.131Z,43.50
2019-04-25T14:44:50.541Z,43.30
2019-04-25T14:47:17.954Z,43.40
2019-04-25T14:49:45.161Z,43.40
2019-04-25T14:52:12.480Z,43.30
2019-04-25T14:54:46.393Z,43.40
2019-04-25T14:57:19.713Z,43.30
2019-04-25T14:59:47.057Z,43.60
2019-04-25T15:02:14.357Z,43.80
2019-04-25T15:04:41.545Z,43.50
2019-04-25T15:07:08.753Z,43.50
2019-04-25T15:09:36.075Z,43.10
2019-04-25T15:12:03.381Z,43.30
2019-04-25T15:14:31.397Z,43.60
2019-04-25T15:16:58.791Z,43.40
2019-04-25T15:19:26.020Z,44.10
2019-04-25T15:21:53.209Z,44.20
2019-04-25T15:24:20.437Z,44.30
2019-04-25T15:26:47.757Z,44.40
2019-04-25T15:29:15.065Z,44.70
2019-04-25T15:31:42.402Z,45.20
2019-04-25T15:34:09.709Z,45.50
2019-04-25T15:36:56.562Z,45.60
2019-04-25T15:39:43.409Z,46.20
2019-04-25T15:42:37.509Z,46.30
2019-04-25T15:45:39.814Z,46.50
2019-04-25T15:48:07.630Z,46.50
2019-04-25T15:50:34.887Z,46.80
2019-04-25T15:53:02.089Z,47.10
2019-04-25T15:55:29.539Z,47.60
2019-04-25T15:57:56.866Z,46.90
2019-04-25T16:00:30.873Z,47.10
2019-04-25T16:02:58.069Z,47.30
2019-04-25T16:05:25.659Z,47.50
2019-04-25T16:07:53.989Z,47.80
2019-04-25T16:10:21.303Z,46.80
2019-04-25T16:12:48.620Z,43.90
2019-04-25T16:15:15.949Z,43.10
2019-04-25T16:17:43.271Z,42.90
2019-04-25T16:20:10.569Z,43.70
2019-04-25T16:22:38.677Z,44.00
2019-04-25T16:25:06.441Z,44.10
2019-04-25T16:27:33.800Z,44.60
2019-04-25T16:30:01.361Z,44.80
2019-04-25T16:32:29.210Z,45.10
2019-04-25T16:34:56.672Z,45.30
2019-04-25T16:37:24.015Z,46.10
2019-04-25T16:39:51.293Z,46.50
2019-04-25T16:42:18.632Z,46.80
2019-04-25T16:44:45.968Z,47.10
2019-04-25T16:47:15.118Z,47.40
2019-04-25T16:49:42.519Z,48.00
2019-04-25T16:52:10.654Z,48.50
2019-04-25T16:54:38.101Z,49.00
2019-04-25T16:57:05.489Z,49.20
2019-04-25T16:59:33.557Z,49.60
2019-04-25T17:02:01.041Z,50.10
2019-04-25T17:04:29.734Z,50.70
2019-04-25T17:06:57.187Z,51.10
2019-04-25T17:09:24.533Z,51.50
2019-04-25T17:11:51.766Z,51.90
2019-04-25T17:14:44.121Z,52.20
2019-04-25T17:17:29.149Z,52.60
2019-04-25T17:20:17.987Z,53.10
2019-04-25T17:22:45.315Z,53.80
2019-04-25T17:25:12.909Z,54.30
2019-04-25T17:27:40.148Z,54.70
2019-04-25T17:30:08.057Z,55.00
2019-04-25T17:32:53.381Z,55.60
2019-04-25T17:35:33.640Z,55.90
2019-04-25T17:38:04.335Z,56.40
2019-04-25T17:40:32.798Z,56.80
2019-04-25T17:43:10.514Z,57.10
2019-04-25T17:45:33.166Z,57.20
2019-04-25T17:48:00.661Z,57.60
2019-04-25T17:50:27.977Z,57.70
2019-04-25T17:52:55.284Z,57.80
2019-04-25T17:55:22.636Z,57.80
2019-04-25T17:57:49.978Z,58.10
2019-04-25T18:00:29.309Z,58.30
2019-04-25T18:02:59.025Z,59.00
2019-04-25T18:05:25.847Z,59.40
2019-04-25T18:07:53.048Z,59.90
2019-04-25T18:10:20.373Z,60.50
2019-04-25T18:12:47.573Z,61.10
2019-04-25T18:15:19.450Z,61.50
2019-04-25T18:17:46.808Z,61.70
2019-04-25T18:20:18.440Z,61.80
2019-04-25T18:23:02.393Z,62.00
2019-04-25T18:25:52.085Z,61.70
2019-04-25T18:28:39.456Z,61.60
2019-04-25T18:31:07.895Z,61.80
2019-04-25T18:33:35.956Z,62.20
2019-04-25T18:36:21.576Z,62.50
2019-04-25T18:39:14.079Z,62.60
2019-04-25T18:41:48.307Z,62.90
2019-04-25T18:44:15.616Z,63.30
2019-04-25T18:46:44.663Z,63.60
2019-04-25T18:49:12.131Z,63.90
2019-04-25T18:51:40.640Z,64.20
2019-04-25T18:54:14.171Z,64.60
2019-04-25T18:56:59.201Z,65.10
2019-04-25T18:59:49.587Z,66.10
2019-04-25T19:02:28.237Z,67.10
2019-04-25T19:05:20.705Z,66.70
2019-04-25T19:07:47.952Z,67.20
2019-04-25T19:10:15.286Z,67.70
2019-04-25T19:12:43.191Z,68.10
2019-04-25T19:15:10.878Z,68.10
2019-04-25T19:17:38.829Z,68.50
2019-04-25T19:20:07.391Z,68.70
2019-04-25T19:22:34.660Z,68.90
2019-04-25T19:25:02.001Z,69.00
2019-04-25T19:27:29.360Z,69.30
2019-04-25T19:29:56.717Z,69.60
2019-04-25T19:32:24.792Z,69.70
2019-04-25T19:34:52.180Z,69.70
2019-04-25T19:37:19.622Z,70.50
2019-04-25T19:40:06.121Z,70.50
2019-04-25T19:42:37.404Z,70.50
2019-04-25T19:45:04.896Z,70.80
2019-04-25T19:47:32.196Z,70.70
2019-04-25T19:49:59.548Z,70.60
2019-04-25T19:52:29.483Z,70.50
2019-04-25T19:54:56.214Z,70.80
2019-04-25T19:57:23.565Z,70.70
2019-04-25T19:59:50.942Z,70.70
2019-04-25T20:02:28.415Z,71.00
2019-04-25T20:05:02.530Z,71.20
2019-04-25T20:07:34.434Z,71.40
2019-04-25T20:10:27.069Z,71.60
2019-04-25T20:12:55.027Z,72.00
2019-04-25T20:15:22.498Z,71.90
2019-04-25T20:17:49.906Z,72.00
2019-04-25T20:20:17.309Z,72.20
2019-04-25T20:22:44.867Z,72.60
2019-04-25T20:25:12.733Z,72.80
2019-04-25T20:27:39.949Z,72.60
2019-04-25T20:30:07.584Z,72.70
2019-04-25T20:32:34.921Z,72.80
2019-04-25T20:35:02.271Z,73.20
2019-04-25T20:37:29.615Z,73.70
2019-04-25T20:39:57.025Z,73.40
2019-04-25T20:42:24.478Z,73.80
2019-04-25T20:44:51.848Z,72.70
2019-04-25T20:47:19.246Z,72.80
2019-04-25T20:49:46.763Z,72.70
2019-04-25T20:52:14.168Z,72.80
2019-04-25T20:54:41.471Z,73.00
2019-04-25T20:57:08.814Z,73.30
2019-04-25T20:59:36.132Z,73.60
2019-04-25T21:02:03.499Z,73.70
2019-04-25T21:04:40.628Z,73.40
2019-04-25T21:07:08.688Z,73.40
2019-04-25T21:09:35.930Z,73.30
2019-04-25T21:12:03.785Z,73.40
2019-04-25T21:14:53.557Z,73.50
2019-04-25T21:17:24.972Z,73.60
2019-04-25T21:19:52.834Z,74.20
2019-04-25T21:22:20.334Z,75.00
2019-04-25T21:24:47.674Z,76.00
2019-04-25T21:27:15.105Z,76.80
2019-04-25T21:29:42.618Z,77.50
2019-04-25T21:32:09.974Z,78.40
2019-04-25T21:34:37.309Z,79.80
2019-04-25T21:37:04.948Z,80.80
2019-04-25T21:39:52.239Z,81.70
2019-04-25T21:42:24.162Z,82.30
2019-04-25T21:44:52.807Z,83.30
2019-04-25T21:47:20.337Z,83.70
2019-04-25T21:49:48.192Z,84.00
2019-04-25T21:52:16.243Z,84.60
2019-04-25T21:54:44.020Z,85.10
2019-04-25T21:57:11.570Z,85.90
2019-04-25T21:59:41.442Z,86.60
2019-04-25T22:02:10.433Z,86.90
2019-04-25T22:04:39.393Z,86.70
2019-04-25T22:07:07.323Z,86.80
2019-04-25T22:09:34.880Z,87.20
2019-04-25T22:12:05.248Z,87.40
2019-04-25T22:14:32.736Z,87.70
2019-04-25T22:17:00.279Z,87.70
2019-04-25T22:19:27.929Z,87.50
2019-04-25T22:21:56.445Z,87.40
2019-04-25T22:24:24.776Z,87.00
2019-04-25T22:26:54.583Z,86.80
2019-04-25T22:29:22.283Z,86.50
2019-04-25T22:32:09.189Z,86.30
2019-04-25T22:34:51.551Z,86.00
2019-04-25T22:37:11.015Z,85.80
2019-04-25T22:39:38.620Z,85.70
2019-04-25T22:42:06.011Z,85.90
2019-04-25T22:44:33.664Z,85.70
2019-04-25T22:47:02.226Z,85.60
2019-04-25T22:49:29.739Z,85.50
2019-04-25T22:51:56.989Z,85.50
2019-04-25T22:54:25.294Z,85.40
2019-04-25T22:56:52.600Z,85.40
2019-04-25T22:59:20.134Z,85.20
2019-04-25T23:02:07.555Z,85.10
2019-04-25T23:05:05.396Z,85.10
2019-04-25T23:07:26.361Z,85.30
2019-04-25T23:09:53.977Z,85.70
2019-04-25T23:12:21.583Z,86.10
2019-04-25T23:14:48.892Z,86.50
2019-04-25T23:17:16.208Z,87.30
2019-04-25T23:19:43.840Z,87.70
2019-04-25T23:22:11.539Z,88.10
2019-04-25T23:24:43.264Z,89.40
2019-04-25T23:27:21.864Z,89.10
2019-04-25T23:29:49.179Z,89.50
2019-04-25T23:32:16.782Z,89.90
2019-04-25T23:34:44.014Z,89.80
2019-04-25T23:37:11.368Z,89.70
2019-04-25T23:39:38.848Z,89.80
2019-04-25T23:42:07.216Z,89.60
2019-04-25T23:44:34.931Z,89.30
2019-04-25T23:47:02.270Z,88.80
2019-04-25T23:49:29.574Z,88.40
2019-04-25T23:51:57.100Z,88.20
2019-04-25T23:54:24.419Z,88.10
2019-04-25T23:56:51.758Z,88.10
2019-04-25T23:59:19.108Z,88.10
